Time;durP1;ratioP1;P1;durP2;ratioP2;P2;SDS_P1;SDS_P2;PMS_P1;PMS_P2;Temp;Humidity;BMP_temperature;BMP_pressure;BME280_temperature;BME280_humidity;BME280_pressure;Samples;Min_cycle;Max_cycle;Signal;HPM_P1;HPM_P2
2021/04/30 00:01:26;;;;;;;9.90;6.78;;;10.60;54.50;;;;;;5035335;28;20041;-80
2021/04/30 00:03:54;;;;;;;10.23;6.35;;;10.60;54.30;;;;;;5039604;28;20053;-80
2021/04/30 00:06:20;;;;;;;9.35;6.20;;;10.50;54.20;;;;;;5034106;28;20331;-78
2021/04/30 00:08:47;;;;;;;9.70;6.78;;;10.50;54.30;;;;;;5038949;28;20140;-80
2021/04/30 00:11:13;;;;;;;11.73;7.30;;;10.40;54.30;;;;;;5043448;28;20480;-80
2021/04/30 00:13:40;;;;;;;10.23;6.68;;;10.40;53.90;;;;;;5036172;28;20044;-80
2021/04/30 00:16:07;;;;;;;10.13;6.22;;;10.50;53.90;;;;;;5040687;28;20089;-80
2021/04/30 00:18:34;;;;;;;9.80;6.60;;;10.40;53.40;;;;;;5038814;28;20052;-80
2021/04/30 00:21:01;;;;;;;14.50;6.15;;;10.40;53.10;;;;;;5034234;28;20572;-80
2021/04/30 00:23:31;;;;;;;9.68;6.22;;;10.40;53.10;;;;;;5037268;28;20107;-80
2021/04/30 00:26:00;;;;;;;9.18;7.05;;;10.40;53.70;;;;;;5034971;28;20509;-80
2021/04/30 00:28:27;;;;;;;12.23;6.68;;;10.40;53.50;;;;;;5036891;28;20075;-80
2021/04/30 00:30:54;;;;;;;13.40;7.53;;;10.30;54.10;;;;;;5041734;28;20045;-80
2021/04/30 00:33:21;;;;;;;11.15;6.70;;;10.30;54.10;;;;;;5039748;28;20090;-81
2021/04/30 00:35:48;;;;;;;12.70;7.22;;;10.20;54.10;;;;;;5035586;28;20135;-80
2021/04/30 00:38:15;;;;;;;10.77;6.80;;;10.20;54.60;;;;;;5037420;28;20041;-80
2021/04/30 00:40:41;;;;;;;11.05;7.10;;;10.20;54.40;;;;;;5042596;28;20472;-81
2021/04/30 00:43:10;;;;;;;12.38;7.28;;;10.20;54.50;;;;;;5035437;28;20103;-80
2021/04/30 00:45:36;;;;;;;11.30;7.25;;;10.20;54.70;;;;;;5036806;28;20381;-80
2021/04/30 00:48:03;;;;;;;10.45;6.70;;;10.10;54.40;;;;;;5036618;28;20049;-81
2021/04/30 00:50:32;;;;;;;10.63;6.72;;;10.20;55.00;;;;;;5040568;28;20045;-80
2021/04/30 00:52:59;;;;;;;10.93;7.28;;;10.20;54.70;;;;;;5046054;28;20053;-80
2021/04/30 00:55:26;;;;;;;10.55;6.40;;;10.20;54.50;;;;;;5044220;28;20100;-79
2021/04/30 00:57:58;;;;;;;11.57;6.47;;;10.20;54.60;;;;;;5045756;28;20574;-79
2021/04/30 01:00:27;;;;;;;11.57;6.75;;;10.20;54.70;;;;;;5045324;28;20057;-79
2021/04/30 01:02:54;;;;;;;13.25;7.38;;;10.00;54.60;;;;;;5046870;28;20468;-80
2021/04/30 01:05:22;;;;;;;8.18;5.97;;;10.00;55.30;;;;;;5049265;28;20107;-80
2021/04/30 01:07:49;;;;;;;11.90;7.00;;;10.10;55.10;;;;;;5055577;28;20049;-80
2021/04/30 01:10:19;;;;;;;10.60;6.95;;;10.10;55.10;;;;;;5045623;28;20452;-79
2021/04/30 01:12:46;;;;;;;8.43;6.35;;;10.00;55.00;;;;;;5038927;28;20049;-80
2021/04/30 01:15:15;;;;;;;8.68;5.88;;;10.00;55.10;;;;;;5048406;28;20123;-80
2021/04/30 01:17:41;;;;;;;9.15;6.07;;;10.00;55.20;;;;;;5050024;28;20052;-80
2021/04/30 01:20:10;;;;;;;10.25;6.50;;;10.00;54.80;;;;;;5046819;28;20400;-80
2021/04/30 01:22:42;;;;;;;9.00;5.85;;;10.20;54.60;;;;;;5047713;28;20482;-80
2021/04/30 01:25:17;;;;;;;8.52;6.55;;;10.10;54.40;;;;;;5059246;28;20048;-79
2021/04/30 01:27:44;;;;;;;17.35;8.07;;;10.00;54.60;;;;;;5050193;28;20419;-80
2021/04/30 01:30:26;;;;;;;9.80;6.93;;;10.00;55.20;;;;;;5049321;28;20107;-80
2021/04/30 01:32:53;;;;;;;21.02;7.15;;;9.90;56.00;;;;;;5042350;28;20440;-79
2021/04/30 01:35:33;;;;;;;10.70;7.40;;;9.80;56.30;;;;;;5060344;28;20040;-80
2021/04/30 01:38:01;;;;;;;11.70;7.47;;;9.70;56.70;;;;;;5046613;28;20094;-79
2021/04/30 01:40:31;;;;;;;10.98;7.32;;;9.80;56.60;;;;;;5049339;28;20102;-80
2021/04/30 01:43:15;;;;;;;14.43;7.50;;;9.80;56.80;;;;;;5045969;28;20372;-80
2021/04/30 01:45:43;;;;;;;11.50;7.38;;;9.70;57.00;;;;;;5047978;28;20579;-80
2021/04/30 01:48:13;;;;;;;11.15;7.07;;;9.60;57.50;;;;;;5047429;28;20045;-80
2021/04/30 01:50:41;;;;;;;12.40;7.37;;;9.60;57.50;;;;;;5044659;28;20114;-80
2021/04/30 01:53:09;;;;;;;10.23;6.85;;;9.50;57.70;;;;;;5046657;28;20137;-80
2021/04/30 01:55:35;;;;;;;14.32;7.18;;;9.50;57.40;;;;;;5049341;28;20076;-80
2021/04/30 01:58:02;;;;;;;11.77;7.53;;;9.60;57.90;;;;;;5051444;28;20530;-80
2021/04/30 02:00:29;;;;;;;15.32;9.05;;;9.60;58.30;;;;;;5048791;28;20435;-80
2021/04/30 02:02:57;;;;;;;14.07;7.78;;;9.60;58.60;;;;;;5046466;28;20100;-81
2021/04/30 02:05:27;;;;;;;12.02;7.30;;;9.40;58.80;;;;;;5044566;28;20060;-79
2021/04/30 02:07:58;;;;;;;13.07;7.47;;;9.10;59.90;;;;;;5031925;28;20048;-80
2021/04/30 02:10:25;;;;;;;11.18;6.97;;;9.10;60.20;;;;;;5048502;28;20151;-80
2021/04/30 02:12:53;;;;;;;11.07;6.10;;;9.10;60.50;;;;;;5042360;28;20053;-81
2021/04/30 02:15:22;;;;;;;10.57;7.30;;;8.90;61.60;;;;;;5050645;28;20044;-81
2021/04/30 02:17:48;;;;;;;11.82;7.63;;;8.90;61.20;;;;;;5045479;28;20098;-80
2021/04/30 02:20:17;;;;;;;13.07;8.35;;;8.90;60.90;;;;;;5050556;28;20044;-80
2021/04/30 02:22:44;;;;;;;11.10;7.47;;;9.20;60.20;;;;;;5050831;28;20049;-79
2021/04/30 02:25:12;;;;;;;9.60;6.95;;;9.20;59.60;;;;;;5049995;28;20053;-79
2021/04/30 02:27:40;;;;;;;10.43;7.18;;;9.10;60.20;;;;;;5052189;28;20052;-79
2021/04/30 02:30:09;;;;;;;11.57;7.45;;;9.10;61.40;;;;;;5050132;28;20067;-79
2021/04/30 02:32:36;;;;;;;12.93;8.18;;;9.00;60.90;;;;;;5058111;28;20049;-80
2021/04/30 02:35:08;;;;;;;13.23;7.93;;;9.00;61.00;;;;;;5049956;28;20057;-81
2021/04/30 02:37:35;;;;;;;12.52;6.80;;;9.00;60.80;;;;;;5049277;28;20045;-78
2021/04/30 02:40:02;;;;;;;11.68;7.97;;;9.20;59.90;;;;;;5056261;28;20496;-81
2021/04/30 02:42:29;;;;;;;13.32;8.45;;;9.10;59.90;;;;;;5047793;28;20053;-79
2021/04/30 02:44:55;;;;;;;12.82;7.80;;;9.00;59.90;;;;;;5050642;28;20549;-79
2021/04/30 02:47:29;;;;;;;10.77;7.32;;;8.90;60.90;;;;;;5047955;28;20057;-80
2021/04/30 02:49:56;;;;;;;13.02;8.15;;;8.70;60.60;;;;;;5054257;28;20045;-80
2021/04/30 02:52:23;;;;;;;13.48;8.40;;;8.50;61.40;;;;;;5068782;28;20052;-79
2021/04/30 02:54:50;;;;;;;12.82;8.20;;;8.40;62.20;;;;;;5051369;28;20048;-80
2021/04/30 02:57:16;;;;;;;12.55;8.02;;;8.40;62.30;;;;;;5055179;28;20106;-80
2021/04/30 02:59:43;;;;;;;15.80;8.52;;;8.40;62.70;;;;;;5047726;28;20052;-80
2021/04/30 03:02:09;;;;;;;13.15;8.20;;;8.50;62.90;;;;;;5048403;28;20049;-80
2021/04/30 03:04:37;;;;;;;11.82;7.60;;;8.50;62.70;;;;;;5043132;28;20049;-80
2021/04/30 03:07:03;;;;;;;14.82;8.43;;;8.40;62.40;;;;;;5050881;28;20111;-80
2021/04/30 03:09:30;;;;;;;12.50;8.43;;;8.40;63.00;;;;;;5041882;28;20072;-80
2021/04/30 03:11:56;;;;;;;13.18;8.73;;;8.40;63.20;;;;;;5049479;28;20056;-80
2021/04/30 03:14:23;;;;;;;12.35;8.80;;;8.50;63.30;;;;;;5055751;28;20090;-80
2021/04/30 03:16:50;;;;;;;12.25;8.07;;;8.50;63.20;;;;;;5050922;28;20060;-79
2021/04/30 03:19:16;;;;;;;11.13;7.97;;;8.50;63.40;;;;;;5049936;28;20048;-79
2021/04/30 03:21:43;;;;;;;13.48;9.18;;;8.60;62.30;;;;;;5050586;28;20094;-80
2021/04/30 03:24:10;;;;;;;14.50;8.88;;;8.60;62.80;;;;;;5052144;28;20052;-79
2021/04/30 03:26:37;;;;;;;15.32;8.55;;;8.60;63.10;;;;;;5049165;28;20049;-80
2021/04/30 03:29:04;;;;;;;13.30;8.68;;;8.50;63.10;;;;;;5046866;28;20041;-80
2021/04/30 03:31:31;;;;;;;14.23;9.23;;;8.40;63.50;;;;;;5049923;28;20049;-79
2021/04/30 03:33:58;;;;;;;14.00;8.73;;;8.50;63.90;;;;;;5050282;28;20052;-79
2021/04/30 03:36:24;;;;;;;14.52;8.35;;;8.80;62.90;;;;;;5037956;28;20046;-78
2021/04/30 03:38:51;;;;;;;15.88;8.85;;;8.40;63.50;;;;;;5048425;28;20152;-78
2021/04/30 03:41:18;;;;;;;13.10;9.10;;;8.30;64.70;;;;;;5050184;28;20060;-78
2021/04/30 03:43:45;;;;;;;11.77;8.25;;;8.30;65.30;;;;;;5041593;28;20095;-78
2021/04/30 03:46:11;;;;;;;13.02;7.82;;;8.20;65.30;;;;;;5049650;28;20099;-79
2021/04/30 03:48:38;;;;;;;13.32;8.10;;;8.20;65.70;;;;;;5043609;28;20060;-78
2021/04/30 03:51:05;;;;;;;13.68;8.20;;;8.10;65.60;;;;;;5048863;28;20052;-78
2021/04/30 03:53:31;;;;;;;13.05;8.13;;;8.30;66.20;;;;;;5049287;28;20040;-78
2021/04/30 03:55:58;;;;;;;13.45;8.35;;;8.40;64.70;;;;;;5047362;28;20049;-78
2021/04/30 03:58:24;;;;;;;11.95;7.88;;;8.40;64.90;;;;;;5048072;28;20102;-78
2021/04/30 04:00:51;;;;;;;15.50;9.20;;;8.30;65.40;;;;;;5046535;28;20045;-78
2021/04/30 04:03:17;;;;;;;19.08;8.65;;;8.40;65.00;;;;;;5046689;28;20045;-79
2021/04/30 04:05:44;;;;;;;14.65;8.02;;;8.50;64.80;;;;;;5049255;28;20053;-78
2021/04/30 04:08:10;;;;;;;15.68;8.68;;;8.20;65.20;;;;;;5047573;28;20464;-79
2021/04/30 04:10:37;;;;;;;15.18;8.98;;;8.10;66.00;;;;;;5058123;28;20118;-79
2021/04/30 04:13:15;;;;;;;15.77;9.63;;;8.00;67.10;;;;;;5045193;28;20052;-79
2021/04/30 04:15:45;;;;;;;15.35;8.70;;;7.90;66.80;;;;;;5046948;28;20155;-78
2021/04/30 04:18:13;;;;;;;17.33;9.38;;;7.90;67.50;;;;;;5050090;28;20446;-79
2021/04/30 04:20:40;;;;;;;14.32;9.50;;;7.80;67.60;;;;;;5060460;28;20049;-79
2021/04/30 04:23:08;;;;;;;16.55;9.95;;;7.80;67.70;;;;;;5056875;28;20043;-79
2021/04/30 04:25:35;;;;;;;13.20;9.73;;;7.90;68.30;;;;;;5047669;28;20102;-79
2021/04/30 04:28:02;;;;;;;15.65;9.82;;;7.90;67.80;;;;;;5044874;28;20064;-79
2021/04/30 04:30:29;;;;;;;15.18;10.15;;;8.00;67.30;;;;;;5046775;28;20044;-79
2021/04/30 04:32:55;;;;;;;15.73;10.30;;;8.00;66.40;;;;;;5042208;28;20091;-79
2021/04/30 04:35:22;;;;;;;18.92;9.55;;;8.00;66.20;;;;;;5047762;28;20048;-79
2021/04/30 04:37:49;;;;;;;17.02;10.05;;;8.10;66.30;;;;;;5046087;28;20052;-78
2021/04/30 04:40:16;;;;;;;17.83;9.82;;;8.20;65.90;;;;;;5049800;28;20045;-79
2021/04/30 04:42:46;;;;;;;17.65;10.85;;;8.30;65.30;;;;;;5048341;28;20045;-78
2021/04/30 04:45:15;;;;;;;15.23;10.48;;;8.30;65.60;;;;;;5044698;28;20048;-78
2021/04/30 04:47:43;;;;;;;16.15;9.82;;;8.30;65.50;;;;;;5050625;28;20057;-79
2021/04/30 04:50:11;;;;;;;18.13;10.35;;;8.30;65.50;;;;;;5049307;28;20417;-79
2021/04/30 04:52:38;;;;;;;15.65;10.52;;;8.40;65.40;;;;;;5047003;28;20104;-79
2021/04/30 04:55:07;;;;;;;19.27;10.38;;;8.40;65.00;;;;;;5048720;28;20051;-78
2021/04/30 04:57:33;;;;;;;17.80;10.68;;;8.50;65.30;;;;;;5030200;28;20095;-79
2021/04/30 05:00:00;;;;;;;17.02;10.35;;;8.40;65.40;;;;;;5048020;28;20045;-79
2021/04/30 05:02:26;;;;;;;19.67;10.30;;;8.60;65.00;;;;;;5046167;28;20053;-78
2021/04/30 05:04:53;;;;;;;17.65;10.20;;;8.70;64.60;;;;;;5045147;28;20047;-80
2021/04/30 05:07:20;;;;;;;16.63;10.30;;;8.70;64.40;;;;;;5061413;28;20074;-80
2021/04/30 05:09:46;;;;;;;14.95;9.32;;;8.80;64.30;;;;;;5045733;28;20079;-80
2021/04/30 05:12:12;;;;;;;16.33;10.18;;;8.80;63.20;;;;;;5044905;28;20381;-79
2021/04/30 05:14:39;;;;;;;16.23;9.95;;;8.80;63.60;;;;;;5046546;28;20060;-80
2021/04/30 05:17:07;;;;;;;17.83;9.95;;;8.70;63.80;;;;;;5045999;28;20085;-80
2021/04/30 05:19:34;;;;;;;13.35;9.18;;;8.90;64.90;;;;;;5045204;28;20053;-80
2021/04/30 05:22:06;;;;;;;16.33;10.02;;;9.00;64.50;;;;;;5047636;28;20049;-80
2021/04/30 05:24:34;;;;;;;22.55;10.40;;;9.00;63.90;;;;;;5045839;28;20148;-80
2021/04/30 05:27:04;;;;;;;16.23;10.43;;;9.00;64.30;;;;;;5048196;28;20102;-80
2021/04/30 05:29:31;;;;;;;19.35;10.52;;;9.10;64.80;;;;;;5048974;28;20492;-80
2021/04/30 05:31:58;;;;;;;17.20;10.85;;;9.20;64.70;;;;;;5038963;28;20064;-79
2021/04/30 05:34:24;;;;;;;18.23;10.93;;;9.30;63.80;;;;;;5042899;28;20041;-79
2021/04/30 05:36:51;;;;;;;16.55;9.27;;;9.30;64.30;;;;;;5035226;28;20045;-79
2021/04/30 05:39:17;;;;;;;18.95;10.23;;;9.30;64.30;;;;;;5045416;28;20045;-80
2021/04/30 05:41:44;;;;;;;14.65;9.40;;;9.20;64.50;;;;;;5045834;28;23438;-80
2021/04/30 05:44:10;;;;;;;18.73;9.80;;;9.30;64.40;;;;;;5042567;28;20437;-79
2021/04/30 05:46:37;;;;;;;15.68;10.25;;;9.40;64.00;;;;;;5047749;28;20045;-79
2021/04/30 05:49:03;;;;;;;13.77;9.25;;;9.40;63.70;;;;;;5047310;28;20566;-79
2021/04/30 05:51:31;;;;;;;16.63;10.52;;;9.30;63.40;;;;;;5045358;28;20045;-79
2021/04/30 05:53:57;;;;;;;17.98;10.35;;;9.40;64.00;;;;;;5038014;28;20045;-79
2021/04/30 05:56:29;;;;;;;18.35;10.60;;;9.30;63.70;;;;;;5037650;28;20037;-80
2021/04/30 05:58:56;;;;;;;17.58;11.30;;;9.30;63.10;;;;;;5044269;28;20397;-80
2021/04/30 06:01:22;;;;;;;15.68;10.15;;;9.30;62.80;;;;;;5042258;28;20053;-80
2021/04/30 06:03:49;;;;;;;16.92;9.88;;;9.30;62.30;;;;;;5046707;28;20557;-79
2021/04/30 06:06:16;;;;;;;19.73;10.80;;;9.30;62.70;;;;;;5049499;28;20053;-79
2021/04/30 06:08:42;;;;;;;16.88;10.60;;;9.30;62.80;;;;;;5046953;28;20407;-79
2021/04/30 06:11:09;;;;;;;16.50;10.88;;;9.40;62.10;;;;;;5052187;28;20048;-79
2021/04/30 06:13:36;;;;;;;16.13;10.43;;;9.40;62.00;;;;;;5049877;28;20374;-79
2021/04/30 06:16:03;;;;;;;22.92;10.73;;;9.50;62.30;;;;;;5046258;28;20052;-78
2021/04/30 06:18:29;;;;;;;18.00;10.40;;;9.50;62.60;;;;;;5041336;28;20114;-80
2021/04/30 06:20:56;;;;;;;18.75;10.52;;;9.50;62.10;;;;;;5046566;28;20049;-81
2021/04/30 06:23:22;;;;;;;14.70;9.52;;;9.60;62.70;;;;;;5049066;28;20503;-80
2021/04/30 06:25:49;;;;;;;16.70;10.25;;;9.60;61.20;;;;;;5045186;28;20060;-79
2021/04/30 06:28:15;;;;;;;18.20;10.15;;;9.60;61.30;;;;;;5046633;28;20048;-79
2021/04/30 06:30:42;;;;;;;20.40;9.65;;;9.50;61.10;;;;;;5063048;28;20061;-80
2021/04/30 06:33:10;;;;;;;17.92;9.68;;;9.50;60.60;;;;;;5047102;28;20460;-80
2021/04/30 06:35:37;;;;;;;19.00;10.38;;;9.40;60.80;;;;;;5039099;28;20051;-79
2021/04/30 06:38:04;;;;;;;17.23;10.07;;;9.40;61.40;;;;;;5043338;28;20049;-80
2021/04/30 06:40:32;;;;;;;15.50;10.18;;;9.60;61.10;;;;;;5047006;28;20047;-78
2021/04/30 06:42:58;;;;;;;17.83;10.57;;;9.70;60.90;;;;;;5041478;28;20484;-79
2021/04/30 06:45:25;;;;;;;15.68;10.32;;;9.60;60.40;;;;;;5049869;28;20057;-79
2021/04/30 06:47:52;;;;;;;14.43;9.52;;;9.80;60.70;;;;;;5046333;28;20115;-78
2021/04/30 06:50:18;;;;;;;16.13;9.63;;;9.90;60.60;;;;;;5038921;28;20045;-78
2021/04/30 06:52:45;;;;;;;20.52;10.85;;;9.90;59.60;;;;;;5044437;28;20714;-79
2021/04/30 06:55:12;;;;;;;19.00;10.40;;;10.00;59.60;;;;;;5040722;28;20138;-79
2021/04/30 06:57:42;;;;;;;16.15;10.73;;;10.10;59.50;;;;;;5044262;28;20055;-79
2021/04/30 07:00:09;;;;;;;17.80;10.15;;;10.20;58.80;;;;;;5049489;28;20484;-79
2021/04/30 07:02:36;;;;;;;16.35;9.25;;;10.00;58.20;;;;;;5049054;28;20115;-77
2021/04/30 07:05:04;;;;;;;20.10;10.23;;;10.10;58.80;;;;;;5050032;28;20053;-78
2021/04/30 07:07:32;;;;;;;18.67;10.00;;;10.20;59.30;;;;;;5045411;28;20102;-78
2021/04/30 07:09:58;;;;;;;17.25;10.70;;;10.20;58.30;;;;;;5059154;28;20154;-77
2021/04/30 07:12:25;;;;;;;15.98;10.38;;;10.30;58.10;;;;;;5043002;28;20041;-78
2021/04/30 07:14:51;;;;;;;17.98;10.60;;;10.00;58.00;;;;;;5044043;28;20072;-79
2021/04/30 07:17:18;;;;;;;15.80;9.98;;;10.00;58.20;;;;;;5045304;28;20049;-79
2021/04/30 07:19:44;;;;;;;18.10;10.95;;;10.00;58.30;;;;;;5042224;28;20061;-79
2021/04/30 07:22:11;;;;;;;16.98;10.57;;;10.00;58.50;;;;;;5042744;28;20059;-79
2021/04/30 07:24:40;;;;;;;14.77;10.13;;;10.10;57.90;;;;;;5046593;28;20533;-79
2021/04/30 07:27:11;;;;;;;20.27;10.52;;;10.10;58.20;;;;;;5046989;28;20587;-79
2021/04/30 07:29:38;;;;;;;19.60;10.38;;;10.10;57.70;;;;;;5044842;28;20054;-77
2021/04/30 07:32:12;;;;;;;15.95;10.07;;;10.20;58.00;;;;;;5047626;28;20087;-79
2021/04/30 07:34:39;;;;;;;17.42;10.25;;;10.20;57.30;;;;;;5044485;28;20045;-79
2021/04/30 07:37:06;;;;;;;20.30;10.10;;;10.20;57.30;;;;;;5047131;28;20060;-79
2021/04/30 07:39:40;;;;;;;19.85;11.25;;;10.20;57.50;;;;;;5047846;28;20049;-86
2021/04/30 07:42:08;;;;;;;16.58;11.13;;;10.10;57.90;;;;;;5046001;28;20049;-79
2021/04/30 07:44:39;;;;;;;17.60;11.00;;;10.20;58.40;;;;;;5047416;28;20045;-81
2021/04/30 07:47:06;;;;;;;19.08;10.38;;;10.30;58.40;;;;;;5046852;28;20044;-78
2021/04/30 07:49:33;;;;;;;16.52;10.55;;;10.70;58.40;;;;;;5044792;28;20048;-77
2021/04/30 07:52:00;;;;;;;19.33;10.85;;;10.90;57.00;;;;;;5048816;28;20076;-78
2021/04/30 07:54:28;;;;;;;17.80;11.02;;;10.80;57.10;;;;;;5046344;28;20416;-80
2021/04/30 07:56:57;;;;;;;16.42;10.23;;;10.90;57.00;;;;;;5045918;28;20044;-80
2021/04/30 07:59:24;;;;;;;21.92;10.57;;;10.90;56.70;;;;;;5043066;28;20462;-89
2021/04/30 08:01:50;;;;;;;22.65;10.63;;;11.10;56.60;;;;;;5045285;28;20048;-80
2021/04/30 08:04:17;;;;;;;19.42;10.55;;;11.20;56.20;;;;;;5045841;28;20057;-76
2021/04/30 08:06:44;;;;;;;17.33;10.43;;;11.60;55.40;;;;;;5045216;28;20049;-80
2021/04/30 08:09:11;;;;;;;16.42;9.57;;;11.90;54.90;;;;;;5045270;28;20132;-83
2021/04/30 08:11:38;;;;;;;19.83;10.45;;;11.60;53.80;;;;;;5048616;28;20543;-84
2021/04/30 08:14:08;;;;;;;15.60;10.30;;;11.90;54.40;;;;;;5046408;28;20106;-84
2021/04/30 08:16:36;;;;;;;15.20;9.27;;;12.10;52.60;;;;;;5047794;28;20045;-85
2021/04/30 08:19:04;;;;;;;19.25;10.70;;;12.20;52.40;;;;;;5050566;28;20066;-84
2021/04/30 08:21:31;;;;;;;17.48;9.73;;;12.30;52.30;;;;;;5049153;28;20108;-84
2021/04/30 08:23:58;;;;;;;14.05;8.30;;;12.20;51.00;;;;;;5045993;28;20053;-86
2021/04/30 08:26:29;;;;;;;12.48;7.85;;;12.40;49.30;;;;;;5048363;28;20049;-86
2021/04/30 08:28:56;;;;;;;16.15;8.80;;;12.60;48.60;;;;;;5050276;28;20119;-85
2021/04/30 08:31:23;;;;;;;16.33;9.45;;;12.40;48.60;;;;;;5049677;28;20049;-85
2021/04/30 08:33:50;;;;;;;15.38;9.48;;;12.20;50.80;;;;;;5049998;28;20053;-85
2021/04/30 08:36:17;;;;;;;16.55;10.60;;;12.40;51.20;;;;;;5050579;28;20087;-84
2021/04/30 08:38:44;;;;;;;18.15;10.43;;;12.50;51.60;;;;;;5052389;28;20094;-85
2021/04/30 08:41:10;;;;;;;21.67;10.55;;;12.60;51.60;;;;;;5066273;28;20071;-86
2021/04/30 08:43:37;;;;;;;15.68;9.50;;;12.60;50.70;;;;;;5048657;28;20177;-86
2021/04/30 08:46:04;;;;;;;17.67;10.88;;;12.50;49.80;;;;;;5049308;28;20048;-84
2021/04/30 08:48:33;;;;;;;18.00;9.68;;;12.40;50.00;;;;;;5049901;28;20607;-87
2021/04/30 08:51:00;;;;;;;20.10;10.45;;;12.50;49.00;;;;;;5053443;28;20041;-88
2021/04/30 08:53:27;;;;;;;20.45;10.00;;;12.50;49.70;;;;;;5053016;28;20041;-86
2021/04/30 08:55:54;;;;;;;15.52;9.57;;;12.50;49.50;;;;;;5048934;28;20076;-85
2021/04/30 08:58:29;;;;;;;13.65;9.55;;;12.20;49.80;;;;;;5049118;28;20106;-86
2021/04/30 09:00:57;;;;;;;16.35;9.57;;;12.40;50.70;;;;;;5048601;28;20166;-86
2021/04/30 09:03:23;;;;;;;17.20;10.35;;;12.90;50.20;;;;;;5049121;28;20069;-85
2021/04/30 09:05:55;;;;;;;19.30;9.82;;;12.90;49.80;;;;;;5048239;28;20138;-86
2021/04/30 09:08:23;;;;;;;18.58;9.65;;;12.90;51.10;;;;;;5047809;28;20049;-87
2021/04/30 09:11:07;;;;;;;17.90;10.23;;;12.50;50.30;;;;;;5048661;28;20051;-87
2021/04/30 09:13:35;;;;;;;18.77;10.75;;;12.60;51.00;;;;;;5046248;28;20049;-88
2021/04/30 09:16:06;;;;;;;17.38;10.95;;;12.50;51.80;;;;;;5030057;28;20091;-87
2021/04/30 09:18:33;;;;;;;18.65;10.18;;;12.40;51.80;;;;;;5047299;28;20107;-86
2021/04/30 09:21:11;;;;;;;16.23;10.43;;;12.40;51.80;;;;;;5048134;28;20045;-89
2021/04/30 09:23:41;;;;;;;18.60;9.98;;;12.40;51.50;;;;;;5050261;28;20219;-87
2021/04/30 09:26:32;;;;;;;16.98;10.57;;;12.30;50.70;;;;;;5049073;28;20041;-87
2021/04/30 09:29:09;;;;;;;14.57;9.77;;;12.10;50.80;;;;;;5048519;28;20465;-87
2021/04/30 09:31:40;;;;;;;18.33;9.85;;;11.90;51.70;;;;;;5048616;28;20524;-88
2021/04/30 09:34:26;;;;;;;16.52;9.55;;;12.00;52.70;;;;;;5046455;28;20045;-87
2021/04/30 09:36:58;;;;;;;14.65;9.98;;;12.20;51.60;;;;;;5050318;28;20095;-87
2021/04/30 09:39:26;;;;;;;17.48;9.93;;;12.10;50.90;;;;;;5032849;28;20219;-87
2021/04/30 09:42:10;;;;;;;20.17;10.68;;;12.20;52.30;;;;;;5050437;28;20088;-87
2021/04/30 09:44:39;;;;;;;15.93;9.57;;;12.20;51.40;;;;;;5048856;28;20045;-89
2021/04/30 09:47:12;;;;;;;16.58;9.15;;;12.10;50.80;;;;;;5048654;28;20051;-86
2021/04/30 09:49:39;;;;;;;15.32;9.35;;;12.00;50.50;;;;;;5048592;28;20460;-88
2021/04/30 09:52:10;;;;;;;17.63;9.55;;;12.00;51.50;;;;;;5049628;28;20148;-89
2021/04/30 09:54:38;;;;;;;16.63;9.35;;;12.30;50.60;;;;;;5029096;28;20072;-88
2021/04/30 09:57:06;;;;;;;15.07;9.38;;;12.50;50.40;;;;;;5048310;28;20131;-88
2021/04/30 09:59:34;;;;;;;17.02;8.90;;;12.50;50.60;;;;;;5046304;28;20059;-84
2021/04/30 10:02:02;;;;;;;17.13;9.07;;;12.60;50.90;;;;;;5043751;28;20077;-85
2021/04/30 10:04:32;;;;;;;14.18;8.95;;;12.80;49.90;;;;;;5044887;28;20110;-84
2021/04/30 10:06:59;;;;;;;16.10;9.45;;;12.60;50.00;;;;;;5045744;28;20057;-84
2021/04/30 10:09:27;;;;;;;18.73;10.10;;;12.50;50.50;;;;;;5046724;28;20045;-84
2021/04/30 10:11:54;;;;;;;16.60;10.38;;;12.50;50.80;;;;;;5047371;28;20073;-83
2021/04/30 10:14:23;;;;;;;15.50;9.88;;;12.30;52.00;;;;;;5044630;28;20041;-84
2021/04/30 10:16:51;;;;;;;15.60;9.25;;;12.40;52.30;;;;;;5030503;28;20144;-84
2021/04/30 10:19:19;;;;;;;17.65;10.32;;;12.30;50.40;;;;;;5044549;28;21393;-84
2021/04/30 10:21:45;;;;;;;26.23;13.75;;;12.20;49.50;;;;;;5042833;28;20471;-84
2021/04/30 10:24:17;;;;;;;17.27;10.35;;;12.30;49.70;;;;;;5043877;28;20199;-83
2021/04/30 10:26:56;;;;;;;14.25;9.18;;;12.40;50.70;;;;;;5045735;28;20111;-84
2021/04/30 10:29:28;;;;;;;15.05;9.48;;;12.30;50.20;;;;;;5043590;28;20135;-84
2021/04/30 10:31:59;;;;;;;;;;;12.10;50.30;;;;;;5045878;28;20429;-83
2021/04/30 10:34:36;;;;;;;21.63;9.35;;;12.10;50.60;;;;;;5050866;28;19932;-84
2021/04/30 10:37:05;;;;;;;18.25;9.80;;;12.20;51.60;;;;;;5050255;28;20052;-85
2021/04/30 10:39:36;;;;;;;18.35;10.05;;;12.30;51.00;;;;;;5049124;28;20137;-85
2021/04/30 10:42:11;;;;;;;13.98;8.98;;;12.30;51.00;;;;;;5047744;28;20148;-84
2021/04/30 10:44:44;;;;;;;19.45;10.52;;;12.30;51.10;;;;;;5050303;28;20076;-83
2021/04/30 10:47:16;;;;;;;15.30;9.20;;;12.20;51.40;;;;;;5030957;28;20071;-84
2021/04/30 10:50:05;;;;;;;16.48;9.45;;;12.00;50.20;;;;;;5048077;28;20060;-84
2021/04/30 10:52:31;;;;;;;15.18;8.88;;;11.90;50.70;;;;;;5049662;28;20570;-86
2021/04/30 10:55:07;;;;;;;23.98;12.73;;;11.60;49.90;;;;;;5051062;28;20053;-84
2021/04/30 10:57:57;;;;;;;21.20;11.85;;;11.60;50.90;;;;;;5051164;28;20095;-85
2021/04/30 11:00:40;;;;;;;15.25;9.50;;;11.80;51.40;;;;;;5052675;28;20049;-85
2021/04/30 11:03:22;;;;;;;16.70;8.60;;;11.70;50.40;;;;;;5050665;28;20140;-84
2021/04/30 11:06:02;;;;;;;16.27;8.27;;;11.70;49.90;;;;;;5053798;28;20053;-86
2021/04/30 11:08:55;;;;;;;18.05;8.65;;;11.90;50.80;;;;;;5050319;28;20041;-86
2021/04/30 11:11:33;;;;;;;12.35;8.43;;;11.90;50.30;;;;;;5047611;28;20053;-86
2021/04/30 11:14:17;;;;;;;13.45;8.00;;;11.90;49.80;;;;;;5050182;28;20056;-84
2021/04/30 11:16:45;;;;;;;11.55;8.05;;;11.70;49.10;;;;;;5047490;28;20061;-82
2021/04/30 11:19:12;;;;;;;11.55;7.75;;;12.00;50.20;;;;;;5050252;28;20056;-85
2021/04/30 11:21:53;;;;;;;13.90;7.85;;;12.10;49.30;;;;;;5048058;28;20195;-84
2021/04/30 11:24:35;;;;;;;11.23;7.30;;;12.30;50.00;;;;;;5067697;28;20119;-85
2021/04/30 11:27:17;;;;;;;11.80;8.32;;;12.30;50.00;;;;;;5050861;28;20561;-84
2021/04/30 11:29:44;;;;;;;19.33;8.82;;;11.80;49.10;;;;;;5047865;28;20171;-82
2021/04/30 11:32:27;;;;;;;15.80;8.98;;;11.80;49.90;;;;;;5049752;28;20409;-86
2021/04/30 11:35:00;;;;;;;19.23;8.98;;;11.80;50.10;;;;;;5048932;28;20086;-84
2021/04/30 11:37:30;;;;;;;16.00;9.15;;;11.70;50.50;;;;;;5061873;28;20463;-84
2021/04/30 11:40:13;;;;;;;20.00;9.73;;;11.80;51.30;;;;;;5049651;28;20036;-85
2021/04/30 11:42:40;;;;;;;15.27;9.70;;;11.70;51.00;;;;;;5031366;28;20044;-85
2021/04/30 11:45:08;;;;;;;19.45;9.82;;;11.50;52.40;;;;;;5046191;28;20441;-84
2021/04/30 11:47:37;;;;;;;15.38;9.80;;;11.50;53.10;;;;;;5048133;28;20127;-84
2021/04/30 11:50:13;;;;;;;14.43;9.68;;;11.60;52.80;;;;;;5050612;28;20053;-83
2021/04/30 11:52:45;;;;;;;17.48;9.75;;;11.70;52.10;;;;;;5047682;28;20063;-86
2021/04/30 11:55:14;;;;;;;16.17;10.38;;;11.80;52.60;;;;;;5049637;28;20068;-84
2021/04/30 11:57:48;;;;;;;25.27;10.10;;;11.80;52.70;;;;;;5048945;28;20060;-85
2021/04/30 12:00:22;;;;;;;15.80;8.82;;;11.70;52.30;;;;;;5048514;28;20049;-84
2021/04/30 12:03:06;;;;;;;14.95;8.85;;;11.80;52.70;;;;;;5045982;28;20495;-84
2021/04/30 12:05:34;;;;;;;16.60;9.18;;;11.70;51.30;;;;;;5051032;28;20579;-85
2021/04/30 12:08:01;;;;;;;16.08;9.35;;;11.70;51.70;;;;;;5047329;28;20041;-85
2021/04/30 12:10:33;;;;;;;16.17;8.88;;;11.70;51.40;;;;;;5048684;28;20049;-84
2021/04/30 12:13:01;;;;;;;11.48;7.80;;;11.80;50.80;;;;;;5047327;28;20431;-84
2021/04/30 12:15:33;;;;;;;14.00;8.25;;;11.70;50.30;;;;;;5049961;28;20090;-85
2021/04/30 12:18:00;;;;;;;13.57;7.93;;;11.70;50.60;;;;;;5048282;28;20056;-83
2021/04/30 12:20:31;;;;;;;12.73;7.68;;;11.70;51.20;;;;;;5047058;28;20098;-84
2021/04/30 12:23:01;;;;;;;11.77;7.32;;;11.70;50.50;;;;;;5032833;28;20808;-84
2021/04/30 12:25:41;;;;;;;11.18;7.15;;;12.00;47.80;;;;;;5049599;28;20053;-86
2021/04/30 12:28:27;;;;;;;12.95;6.35;;;12.10;48.00;;;;;;5048631;28;20068;-84
2021/04/30 12:31:06;;;;;;;9.20;6.28;;;12.10;47.50;;;;;;5050012;28;20072;-85
2021/04/30 12:33:48;;;;;;;10.32;6.28;;;12.30;47.40;;;;;;5047260;28;20123;-84
2021/04/30 12:36:30;;;;;;;10.30;6.65;;;11.70;47.20;;;;;;5048467;28;20051;-84
2021/04/30 12:39:04;;;;;;;7.72;5.88;;;11.60;48.00;;;;;;5045682;28;20053;-84
2021/04/30 12:41:32;;;;;;;13.25;5.35;;;11.70;47.70;;;;;;5045204;28;20065;-84
2021/04/30 12:44:01;;;;;;;9.98;6.03;;;12.00;47.80;;;;;;5046854;28;20041;-84
2021/04/30 12:46:33;;;;;;;8.80;5.47;;;12.10;47.90;;;;;;5048139;28;20056;-84
2021/04/30 12:49:07;;;;;;;10.43;6.35;;;12.20;48.00;;;;;;5046229;28;20077;-84